Time;durP1;ratioP1;P1;durP2;ratioP2;P2;SDS_P1;SDS_P2;PMS_P1;PMS_P2;Temp;Humidity;BMP_temperature;BMP_pressure;BME280_temperature;BME280_humidity;BME280_pressure;Samples;Min_cycle;Max_cycle;Signal;HPM_P1;HPM_P2
2023/10/01 00:00:12;;;;;;;3.05;1.80;;;16.60;99.90;;;;;;7394236;19;20158;-91
2023/10/01 00:02:39;;;;;;;3.45;2.10;;;16.80;99.90;;;;;;7394574;19;20151;-90
2023/10/01 00:05:06;;;;;;;2.88;1.75;;;16.90;99.90;;;;;;7393514;19;20178;-90
2023/10/01 00:07:37;;;;;;;4.43;2.03;;;16.90;99.90;;;;;;7394670;19;20148;-91
2023/10/01 00:10:12;;;;;;;3.38;1.63;;;17.00;99.90;;;;;;7395641;19;20163;-91
2023/10/01 00:12:44;;;;;;;3.60;1.90;;;16.90;99.90;;;;;;7393569;19;20191;-90
2023/10/01 00:15:12;;;;;;;3.38;2.03;;;16.90;99.90;;;;;;7395648;19;20724;-90
2023/10/01 00:17:39;;;;;;;3.53;2.13;;;16.90;99.90;;;;;;7394534;19;20173;-90
2023/10/01 00:20:30;;;;;;;4.82;2.17;;;16.50;99.90;;;;;;7395850;19;20150;-90
2023/10/01 00:22:59;;;;;;;4.45;2.35;;;16.30;99.90;;;;;;7394552;19;20503;-90
2023/10/01 00:25:26;;;;;;;3.13;1.55;;;16.10;99.90;;;;;;7394065;19;20587;-89
2023/10/01 00:27:52;;;;;;;3.47;2.40;;;16.00;99.90;;;;;;7395158;19;20142;-92
2023/10/01 00:30:18;;;;;;;4.65;1.83;;;16.20;99.90;;;;;;7395417;19;20154;-90
2023/10/01 00:32:44;;;;;;;3.28;1.95;;;16.10;99.90;;;;;;7393766;19;20532;-91
2023/10/01 00:35:11;;;;;;;2.53;1.70;;;16.40;99.90;;;;;;7393575;19;20146;-91
2023/10/01 00:37:38;;;;;;;3.78;2.25;;;16.30;99.90;;;;;;7399485;19;20964;-90
2023/10/01 00:40:06;;;;;;;3.65;2.15;;;16.20;99.90;;;;;;7395731;19;20138;-90
2023/10/01 00:42:36;;;;;;;3.15;1.70;;;16.00;99.90;;;;;;7394170;19;20218;-89
2023/10/01 00:45:03;;;;;;;2.58;1.90;;;16.00;99.90;;;;;;7391453;19;20155;-91
2023/10/01 00:47:31;;;;;;;2.67;1.98;;;16.10;99.90;;;;;;7394639;19;20218;-89
2023/10/01 00:49:58;;;;;;;3.97;2.03;;;15.90;99.90;;;;;;7391182;19;21041;-91
2023/10/01 00:52:24;;;;;;;2.90;1.50;;;15.90;99.90;;;;;;7390786;19;20138;-90
2023/10/01 00:54:51;;;;;;;3.92;2.28;;;15.80;99.90;;;;;;7394436;19;20135;-89
2023/10/01 00:57:17;;;;;;;3.08;1.98;;;15.70;99.90;;;;;;7394783;19;20134;-91
2023/10/01 00:59:44;;;;;;;3.10;1.63;;;15.60;99.90;;;;;;7394592;19;20135;-89
2023/10/01 01:02:10;;;;;;;2.65;1.77;;;15.70;99.90;;;;;;7395100;19;20130;-89
2023/10/01 01:04:42;;;;;;;3.65;1.70;;;15.90;99.90;;;;;;7392702;19;20150;-91
2023/10/01 01:07:15;;;;;;;3.33;1.55;;;15.50;99.90;;;;;;7393295;19;20150;-90
2023/10/01 01:09:42;;;;;;;3.67;1.45;;;15.30;99.90;;;;;;7392833;19;20166;-91
2023/10/01 01:12:09;;;;;;;3.33;1.95;;;15.40;99.90;;;;;;7393100;19;20162;-92
2023/10/01 01:14:36;;;;;;;3.00;1.85;;;15.90;99.90;;;;;;7392880;19;20147;-89
2023/10/01 01:17:04;;;;;;;2.25;1.50;;;16.10;99.90;;;;;;7394808;19;20170;-90
2023/10/01 01:19:31;;;;;;;2.80;1.75;;;16.20;99.90;;;;;;7392431;19;20483;-89
2023/10/01 01:21:57;;;;;;;2.30;1.88;;;15.90;99.90;;;;;;7392217;19;20142;-89
2023/10/01 01:24:24;;;;;;;3.75;2.00;;;15.50;99.90;;;;;;7392594;19;20143;-89
2023/10/01 01:26:51;;;;;;;4.70;1.80;;;15.30;99.90;;;;;;7392970;19;20684;-89
2023/10/01 01:29:30;;;;;;;2.30;1.45;;;15.20;99.90;;;;;;7392859;19;20158;-90
2023/10/01 01:32:19;;;;;;;2.58;1.60;;;15.30;99.90;;;;;;7390863;19;20142;-89
2023/10/01 01:34:46;;;;;;;2.70;1.52;;;15.70;99.90;;;;;;7390526;19;20158;-89
2023/10/01 01:37:36;;;;;;;2.10;1.85;;;15.80;99.90;;;;;;7392867;19;20134;-90
2023/10/01 01:40:13;;;;;;;3.00;1.80;;;15.90;99.90;;;;;;7393528;19;20139;-89
2023/10/01 01:42:39;;;;;;;2.88;1.48;;;15.70;99.90;;;;;;7392788;19;20154;-90
2023/10/01 01:45:25;;;;;;;2.95;1.85;;;15.50;99.90;;;;;;7391340;19;20632;-89
2023/10/01 01:47:51;;;;;;;4.03;2.33;;;15.40;99.90;;;;;;7391588;19;20147;-88
2023/10/01 01:50:26;;;;;;;2.67;1.95;;;15.50;99.90;;;;;;7392565;19;20155;-88
2023/10/01 01:52:58;;;;;;;4.55;2.50;;;15.40;99.90;;;;;;7391774;19;20612;-89
2023/10/01 01:55:28;;;;;;;3.60;2.00;;;15.60;99.90;;;;;;7393344;19;20162;-89
2023/10/01 01:58:10;;;;;;;3.40;2.10;;;15.50;99.90;;;;;;7398799;19;20185;-88
2023/10/01 02:01:01;;;;;;;2.25;1.48;;;15.40;99.90;;;;;;7399335;19;20583;-88
2023/10/01 02:03:33;;;;;;;2.88;1.55;;;15.60;99.90;;;;;;7397598;19;20511;-89
2023/10/01 02:06:01;;;;;;;3.85;2.47;;;15.80;99.90;;;;;;7397703;19;20146;-88
2023/10/01 02:11:13;;;;;;;3.35;1.83;;;15.70;99.90;;;;;;7397198;19;20146;-89
2023/10/01 02:13:45;;;;;;;2.45;1.67;;;15.50;99.90;;;;;;7394023;19;20135;-88
2023/10/01 02:19:18;;;;;;;3.38;2.08;;;15.40;99.90;;;;;;7398107;19;20167;-89
2023/10/01 02:22:00;;;;;;;3.13;1.80;;;15.50;99.90;;;;;;7397757;19;20757;-89
2023/10/01 02:24:45;;;;;;;4.80;2.22;;;15.60;99.90;;;;;;7396497;19;20150;-89
2023/10/01 02:27:26;;;;;;;3.38;1.70;;;15.70;99.90;;;;;;7401037;19;20139;-90
2023/10/01 02:30:11;;;;;;;4.55;1.90;;;15.80;99.90;;;;;;7397767;19;20159;-90
2023/10/01 02:32:49;;;;;;;3.05;1.95;;;15.90;99.90;;;;;;7397536;19;20148;-89
2023/10/01 02:35:36;;;;;;;4.22;1.90;;;15.90;99.90;;;;;;7396872;19;20157;-88
2023/10/01 02:38:36;;;;;;;4.60;1.92;;;15.90;99.90;;;;;;7398507;19;20187;-88
2023/10/01 02:40:58;;;;;;;4.65;2.03;;;15.60;99.90;;;;;;7398718;19;20154;-88
2023/10/01 02:43:26;;;;;;;3.15;1.70;;;15.60;99.90;;;;;;7396199;19;20233;-88
2023/10/01 02:45:52;;;;;;;3.47;1.90;;;14.90;99.90;;;;;;7397438;19;20131;-89
2023/10/01 02:48:17;;;;;;;3.55;2.05;;;15.20;99.90;;;;;;7396384;19;20139;-88
2023/10/01 02:50:45;;;;;;;2.28;1.80;;;15.10;99.90;;;;;;7394781;19;20142;-90
2023/10/01 02:53:14;;;;;;;3.50;1.80;;;15.20;99.90;;;;;;7396838;19;20155;-89
2023/10/01 02:55:44;;;;;;;2.80;1.77;;;15.10;99.90;;;;;;7399090;19;20143;-88
2023/10/01 02:58:27;;;;;;;3.63;2.33;;;15.30;99.90;;;;;;7400480;19;20142;-89
2023/10/01 03:00:56;;;;;;;5.00;2.28;;;15.60;99.90;;;;;;7395243;19;20161;-88
2023/10/01 03:03:42;;;;;;;4.05;2.08;;;15.60;99.90;;;;;;7397706;19;20154;-89
2023/10/01 03:06:10;;;;;;;3.08;1.70;;;15.60;99.90;;;;;;7395337;19;20198;-89
2023/10/01 03:11:18;;;;;;;2.67;2.03;;;15.10;99.90;;;;;;7396842;19;20146;-90
2023/10/01 03:13:48;;;;;;;4.85;1.90;;;15.00;99.90;;;;;;7393207;19;20194;-88
2023/10/01 03:19:18;;;;;;;2.40;1.35;;;14.90;99.90;;;;;;7398564;19;20141;-88
2023/10/01 03:24:29;;;;;;;3.47;2.17;;;15.30;99.90;;;;;;7396367;19;20133;-90
2023/10/01 03:27:03;;;;;;;3.03;1.73;;;15.50;99.90;;;;;;7398321;19;20158;-90
2023/10/01 03:29:35;;;;;;;2.78;1.90;;;15.20;99.90;;;;;;7397419;19;20149;-88
2023/10/01 03:32:26;;;;;;;3.63;1.85;;;15.30;99.90;;;;;;7396970;19;20147;-88
2023/10/01 03:34:47;;;;;;;1.80;1.35;;;15.20;99.90;;;;;;7395823;19;20151;-88
2023/10/01 03:37:19;;;;;;;2.63;1.50;;;15.40;99.90;;;;;;7397275;19;20135;-88
2023/10/01 03:39:50;;;;;;;3.42;2.05;;;15.30;99.90;;;;;;7397066;19;20198;-88
2023/10/01 03:42:20;;;;;;;3.25;1.90;;;15.20;99.90;;;;;;7396717;19;20146;-88
2023/10/01 03:45:54;;;;;;;3.90;2.28;;;15.00;99.90;;;;;;7395706;19;20147;-88
2023/10/01 03:47:42;;;;;;;2.90;1.73;;;14.70;99.90;;;;;;7394675;19;20139;-88
2023/10/01 03:50:09;;;;;;;4.32;2.05;;;15.00;99.90;;;;;;7397099;19;20147;-88
2023/10/01 03:52:40;;;;;;;3.10;1.92;;;15.30;99.90;;;;;;7394969;19;20170;-88
2023/10/01 03:55:27;;;;;;;2.70;1.80;;;15.30;99.90;;;;;;7395717;19;20169;-87
2023/10/01 03:58:06;;;;;;;3.50;2.33;;;15.40;99.90;;;;;;7394959;19;20140;-87
2023/10/01 04:00:53;;;;;;;3.55;1.70;;;15.50;99.90;;;;;;7395858;19;20135;-87
2023/10/01 04:03:21;;;;;;;4.13;2.33;;;15.50;99.90;;;;;;7394063;19;20202;-88
2023/10/01 04:05:48;;;;;;;3.33;1.90;;;15.40;99.90;;;;;;7394107;19;20595;-88
2023/10/01 04:08:14;;;;;;;3.25;1.52;;;15.60;99.90;;;;;;7394963;19;20142;-88
2023/10/01 04:10:41;;;;;;;5.03;2.60;;;15.00;99.90;;;;;;7397695;19;20198;-88
2023/10/01 04:13:20;;;;;;;2.40;1.83;;;15.10;99.90;;;;;;7394295;19;20123;-89
2023/10/01 04:15:55;;;;;;;3.25;2.38;;;15.20;99.90;;;;;;7395941;19;20149;-89
2023/10/01 04:18:24;;;;;;;2.45;1.65;;;15.10;99.90;;;;;;7395292;19;20127;-90
2023/10/01 04:23:29;;;;;;;2.90;2.10;;;15.40;99.90;;;;;;7396795;19;20531;-89
2023/10/01 04:26:08;;;;;;;2.85;2.05;;;15.40;99.90;;;;;;7394757;19;20147;-89
2023/10/01 04:28:35;;;;;;;3.85;2.78;;;15.40;99.90;;;;;;7395672;19;20130;-90
2023/10/01 04:31:09;;;;;;;2.60;1.77;;;15.40;99.90;;;;;;7395336;19;20202;-89
2023/10/01 04:33:42;;;;;;;3.13;2.08;;;15.30;99.90;;;;;;7392715;19;20127;-89
2023/10/01 04:36:19;;;;;;;3.42;1.92;;;14.80;99.90;;;;;;7395575;19;20206;-89
2023/10/01 04:38:48;;;;;;;1.80;1.48;;;14.40;99.90;;;;;;7395034;19;20162;-88
2023/10/01 04:41:18;;;;;;;3.72;2.45;;;14.30;99.90;;;;;;7394266;19;20148;-86
2023/10/01 04:46:31;;;;;;;2.97;1.98;;;14.50;99.90;;;;;;7392706;19;20174;-88
2023/10/01 04:48:56;;;;;;;2.35;1.85;;;14.50;99.90;;;;;;7393705;19;20162;-91
2023/10/01 04:51:23;;;;;;;2.00;1.80;;;14.70;99.90;;;;;;7392603;19;20140;-87
2023/10/01 04:53:49;;;;;;;2.70;1.58;;;14.90;99.90;;;;;;7389625;19;20477;-88
2023/10/01 04:56:21;;;;;;;2.03;1.38;;;14.90;99.90;;;;;;7394065;19;20135;-89
2023/10/01 04:58:51;;;;;;;2.83;1.38;;;15.00;99.90;;;;;;7392800;19;20130;-88
2023/10/01 05:01:23;;;;;;;3.25;1.80;;;15.00;99.90;;;;;;7392985;19;20154;-89
2023/10/01 05:03:54;;;;;;;3.45;2.08;;;15.10;99.90;;;;;;7392462;19;20811;-88
2023/10/01 05:06:20;;;;;;;1.92;1.65;;;15.20;99.90;;;;;;7391252;19;20183;-88
2023/10/01 05:08:51;;;;;;;3.25;1.70;;;15.20;99.90;;;;;;7393361;19;20592;-89
2023/10/01 05:11:21;;;;;;;3.85;2.42;;;15.00;99.90;;;;;;7392395;19;20150;-89
2023/10/01 05:13:51;;;;;;;2.17;1.95;;;15.10;99.90;;;;;;7392049;19;20150;-89
2023/10/01 05:16:20;;;;;;;4.63;1.85;;;15.10;99.90;;;;;;7391493;19;20146;-89
2023/10/01 05:18:46;;;;;;;4.90;2.00;;;15.00;99.90;;;;;;7393790;19;20134;-89
2023/10/01 05:21:21;;;;;;;3.60;2.38;;;15.10;99.90;;;;;;7391527;19;20497;-88
2023/10/01 05:23:47;;;;;;;3.17;1.90;;;15.20;99.90;;;;;;7392186;19;20158;-86
2023/10/01 05:26:20;;;;;;;2.67;1.50;;;14.90;99.90;;;;;;7390900;19;20206;-88
2023/10/01 05:28:48;;;;;;;3.15;1.65;;;14.90;99.90;;;;;;7392519;19;20135;-88
2023/10/01 05:31:14;;;;;;;2.63;1.52;;;15.00;99.90;;;;;;7396023;19;20157;-87
2023/10/01 05:33:46;;;;;;;4.10;2.08;;;15.10;99.90;;;;;;7397476;19;20630;-87
2023/10/01 05:36:14;;;;;;;3.28;2.03;;;15.20;99.90;;;;;;7396814;19;20134;-88
2023/10/01 05:38:43;;;;;;;4.35;2.08;;;15.30;99.90;;;;;;7398536;19;20505;-88
2023/10/01 05:41:13;;;;;;;3.13;1.67;;;15.30;99.90;;;;;;7396701;19;20485;-88
2023/10/01 05:43:43;;;;;;;4.97;2.70;;;15.30;99.90;;;;;;7397708;19;20246;-88
2023/10/01 05:46:13;;;;;;;7.85;2.08;;;15.30;99.90;;;;;;7397174;19;20595;-87
2023/10/01 05:48:39;;;;;;;3.25;2.17;;;15.00;99.90;;;;;;7396185;19;20158;-88
2023/10/01 05:51:15;;;;;;;4.07;1.98;;;15.00;99.90;;;;;;7398011;19;20174;-88
2023/10/01 05:53:41;;;;;;;2.65;1.77;;;14.90;99.90;;;;;;7395939;19;20153;-87
2023/10/01 05:56:12;;;;;;;1.92;1.50;;;14.80;99.90;;;;;;7397327;19;20556;-87
2023/10/01 05:58:44;;;;;;;3.55;1.73;;;15.00;99.90;;;;;;7397947;19;20162;-88
2023/10/01 06:01:16;;;;;;;3.03;1.70;;;15.00;99.90;;;;;;7397933;19;20150;-88
2023/10/01 06:03:49;;;;;;;3.60;1.90;;;15.00;99.90;;;;;;7398148;19;20162;-88
2023/10/01 06:06:38;;;;;;;2.78;2.10;;;14.90;99.90;;;;;;7397068;19;20189;-88
2023/10/01 06:09:09;;;;;;;4.22;2.13;;;14.70;99.90;;;;;;7399374;19;20154;-87
2023/10/01 06:12:03;;;;;;;3.17;2.10;;;14.80;99.90;;;;;;7397966;19;20153;-88
2023/10/01 06:14:42;;;;;;;3.70;1.73;;;14.90;99.90;;;;;;7396129;19;20150;-87
2023/10/01 06:17:10;;;;;;;4.75;2.00;;;15.10;99.90;;;;;;7396577;19;20143;-87
2023/10/01 06:19:40;;;;;;;3.75;2.45;;;15.20;99.90;;;;;;7396163;19;20608;-88
2023/10/01 06:22:12;;;;;;;4.85;2.22;;;15.20;99.90;;;;;;7397492;19;20131;-88
2023/10/01 06:24:46;;;;;;;2.92;1.80;;;15.30;99.90;;;;;;7397143;19;20149;-88
2023/10/01 06:27:13;;;;;;;2.47;1.80;;;15.30;99.90;;;;;;7398099;19;20161;-89
2023/10/01 06:29:49;;;;;;;2.15;1.73;;;15.30;99.90;;;;;;7396721;19;20146;-83
2023/10/01 06:32:24;;;;;;;3.45;1.90;;;15.30;99.90;;;;;;7394562;19;20482;-84
2023/10/01 06:34:51;;;;;;;2.70;1.88;;;15.30;99.90;;;;;;7394504;19;20146;-83
2023/10/01 06:37:19;;;;;;;4.18;2.25;;;15.20;99.90;;;;;;7396953;19;20634;-84
2023/10/01 06:39:46;;;;;;;3.42;1.95;;;15.20;99.90;;;;;;7394789;19;20146;-86
2023/10/01 06:42:18;;;;;;;3.15;1.70;;;15.30;99.90;;;;;;7394207;19;20146;-85
2023/10/01 06:44:48;;;;;;;3.17;1.83;;;15.10;99.90;;;;;;7397007;19;20567;-85
2023/10/01 06:47:18;;;;;;;3.13;1.90;;;15.10;99.90;;;;;;7396647;19;20154;-87
2023/10/01 06:52:27;;;;;;;4.22;2.20;;;15.30;99.90;;;;;;7398600;19;20127;-85
2023/10/01 06:54:57;;;;;;;3.33;2.13;;;15.40;99.90;;;;;;7401153;19;20582;-84
2023/10/01 06:57:27;;;;;;;4.18;2.58;;;15.40;99.90;;;;;;7403802;19;20170;-85
2023/10/01 06:59:56;;;;;;;1.92;1.70;;;15.40;99.90;;;;;;7403766;19;20146;-86
2023/10/01 07:02:26;;;;;;;2.33;1.77;;;15.50;99.90;;;;;;7401775;19;20135;-87
2023/10/01 07:04:56;;;;;;;3.63;2.20;;;15.40;99.90;;;;;;7398123;19;20198;-86
2023/10/01 07:07:23;;;;;;;2.88;1.98;;;15.40;99.90;;;;;;7396383;19;20620;-86
2023/10/01 07:09:49;;;;;;;5.90;2.20;;;15.60;99.90;;;;;;7396370;19;20123;-88
2023/10/01 07:12:18;;;;;;;3.13;1.70;;;15.60;99.90;;;;;;7395374;19;20209;-87
2023/10/01 07:14:44;;;;;;;3.28;2.25;;;15.60;99.90;;;;;;7395369;19;20154;-86
2023/10/01 07:17:14;;;;;;;3.90;1.73;;;15.70;99.90;;;;;;7395807;19;20245;-88
2023/10/01 07:19:59;;;;;;;4.45;2.42;;;15.50;99.90;;;;;;7395631;19;20126;-88
2023/10/01 07:22:34;;;;;;;5.10;2.60;;;15.60;99.90;;;;;;7396084;19;20131;-88
2023/10/01 07:25:03;;;;;;;3.28;2.28;;;15.60;99.90;;;;;;7395319;19;20138;-88
2023/10/01 07:27:29;;;;;;;5.32;2.75;;;15.60;99.90;;;;;;7397315;19;20209;-89
2023/10/01 07:30:00;;;;;;;4.93;2.35;;;15.60;99.90;;;;;;7395859;19;20612;-88
2023/10/01 07:32:26;;;;;;;4.18;1.70;;;15.80;99.90;;;;;;7396443;19;20168;-89
2023/10/01 07:34:58;;;;;;;2.38;1.83;;;15.70;99.90;;;;;;7396224;19;20139;-88
2023/10/01 07:37:31;;;;;;;3.67;2.13;;;15.80;99.90;;;;;;7395168;19;20139;-86
2023/10/01 07:40:17;;;;;;;3.20;1.33;;;15.90;99.90;;;;;;7396659;19;20141;-88
2023/10/01 07:42:54;;;;;;;5.53;1.95;;;15.90;99.90;;;;;;7396709;19;20146;-89
2023/10/01 07:45:20;;;;;;;4.03;2.10;;;16.20;99.90;;;;;;7393084;19;20179;-88
2023/10/01 07:47:48;;;;;;;4.60;2.50;;;16.10;99.90;;;;;;7394917;19;20151;-86
2023/10/01 07:50:16;;;;;;;3.40;1.77;;;16.20;99.90;;;;;;7394274;19;20153;-87
2023/10/01 07:52:44;;;;;;;4.20;2.60;;;16.10;99.90;;;;;;7394866;19;20147;-87
2023/10/01 07:55:35;;;;;;;3.60;2.20;;;16.20;99.90;;;;;;7394246;19;20151;-85
2023/10/01 08:00:47;;;;;;;3.42;2.35;;;16.20;99.90;;;;;;7395200;19;20153;-85
2023/10/01 08:05:49;;;;;;;3.67;2.60;;;16.30;99.90;;;;;;7392595;19;20197;-89
2023/10/01 08:08:35;;;;;;;3.85;2.45;;;16.40;99.90;;;;;;7395843;19;20466;-85
2023/10/01 08:11:55;;;;;;;3.95;2.15;;;16.30;99.90;;;;;;7392638;19;20145;-87
2023/10/01 08:13:55;;;;;;;1.88;1.50;;;16.40;99.90;;;;;;7391100;19;20138;-84
2023/10/01 08:16:22;;;;;;;3.95;1.85;;;16.40;99.90;;;;;;7393201;19;20145;-86
2023/10/01 08:18:51;;;;;;;2.10;1.55;;;16.40;99.90;;;;;;7393043;19;20481;-86
2023/10/01 08:21:17;;;;;;;3.58;2.10;;;16.40;99.90;;;;;;7393201;19;20150;-84
2023/10/01 08:23:54;;;;;;;2.75;1.75;;;16.50;99.90;;;;;;7393913;19;20135;-84
2023/10/01 08:29:07;;;;;;;4.03;1.85;;;16.60;99.90;;;;;;7395678;19;20615;-88
2023/10/01 08:34:24;;;;;;;4.05;1.77;;;16.70;99.90;;;;;;7392557;19;20897;-86
2023/10/01 08:37:06;;;;;;;3.45;1.95;;;16.80;99.90;;;;;;7393805;19;20165;-86
2023/10/01 08:39:48;;;;;;;2.78;1.67;;;16.90;99.90;;;;;;7394211;19;20142;-85
2023/10/01 08:42:17;;;;;;;3.47;2.08;;;17.00;99.90;;;;;;7395503;19;20148;-87
2023/10/01 08:44:51;;;;;;;2.63;1.70;;;17.00;99.90;;;;;;7393280;19;20294;-89
2023/10/01 08:47:34;;;;;;;4.65;2.42;;;17.10;99.90;;;;;;7397742;19;20130;-87
2023/10/01 09:00:49;;;;;;;3.13;2.25;;;17.90;99.90;;;;;;7395625;19;20507;-83
2023/10/01 09:03:26;;;;;;;3.88;2.22;;;18.00;99.90;;;;;;7393043;19;20210;-88
2023/10/01 09:06:03;;;;;;;2.55;1.90;;;18.10;99.90;;;;;;7388577;19;20169;-86
2023/10/01 09:08:42;;;;;;;3.58;1.88;;;18.10;99.90;;;;;;7393634;19;20163;-86
2023/10/01 09:11:15;;;;;;;3.38;1.92;;;18.20;99.90;;;;;;7391928;19;20176;-84
2023/10/01 09:13:58;;;;;;;3.22;2.03;;;18.40;99.90;;;;;;7391625;19;20131;-89
2023/10/01 09:16:34;;;;;;;3.33;2.53;;;18.40;99.90;;;;;;7394355;19;21571;-85
2023/10/01 09:19:30;;;;;;;2.20;1.85;;;18.60;99.90;;;;;;7392857;19;20145;-84
2023/10/01 09:21:50;;;;;;;1.73;1.45;;;18.60;99.90;;;;;;7391267;19;20150;-83
2023/10/01 09:24:34;;;;;;;3.97;2.30;;;18.70;99.90;;;;;;7389988;19;20170;-83
2023/10/01 09:27:18;;;;;;;3.83;1.92;;;18.90;99.90;;;;;;7392325;19;20143;-83
2023/10/01 09:29:45;;;;;;;3.63;2.05;;;18.90;99.90;;;;;;7390310;19;20788;-83
2023/10/01 09:32:13;;;;;;;2.33;1.80;;;19.00;99.90;;;;;;7389607;19;20198;-83
2023/10/01 09:34:47;;;;;;;3.60;1.88;;;19.00;99.90;;;;;;7390001;19;20162;-83
2023/10/01 09:43:02;;;;;;;2.05;1.42;;;19.10;99.90;;;;;;7390308;19;20138;-84
2023/10/01 09:45:49;;;;;;;2.85;1.80;;;19.20;99.90;;;;;;7389865;19;20145;-86
2023/10/01 09:48:29;;;;;;;2.20;1.70;;;19.30;99.90;;;;;;7390384;19;20154;-83
2023/10/01 09:51:15;;;;;;;3.00;1.92;;;19.40;99.90;;;;;;7391318;19;20138;-84
2023/10/01 09:54:01;;;;;;;2.92;2.30;;;19.50;99.90;;;;;;7389007;19;20161;-83
2023/10/01 09:56:46;;;;;;;2.90;1.80;;;19.60;99.90;;;;;;7389523;19;20150;-79
2023/10/01 09:59:18;;;;;;;4.75;1.88;;;19.70;99.90;;;;;;7389976;19;20627;-79
2023/10/01 10:01:47;;;;;;;3.13;1.65;;;19.70;99.90;;;;;;7388902;19;20150;-79
2023/10/01 10:04:20;;;;;;;3.58;2.00;;;19.90;99.90;;;;;;7388209;19;20155;-78
2023/10/01 10:06:59;;;;;;;3.97;2.08;;;19.90;99.90;;;;;;7386893;19;20663;-80
2023/10/01 10:09:26;;;;;;;4.05;2.20;;;19.90;99.90;;;;;;7389201;19;20643;-81
2023/10/01 10:11:54;;;;;;;3.75;2.15;;;20.00;99.90;;;;;;7390201;19;20471;-81
2023/10/01 10:14:26;;;;;;;3.38;1.73;;;20.10;99.90;;;;;;7387692;19;20152;-84
2023/10/01 10:16:58;;;;;;;4.55;1.67;;;20.10;99.90;;;;;;7391080;19;20131;-80
2023/10/01 10:20:15;;;;;;;3.13;1.60;;;20.30;99.90;;;;;;7394605;19;20634;-81
2023/10/01 10:23:13;;;;;;;3.60;1.80;;;20.40;99.90;;;;;;7389816;19;20210;-78
2023/10/01 10:25:45;;;;;;;3.90;2.22;;;20.60;99.90;;;;;;7390168;19;20494;-79
2023/10/01 10:28:28;;;;;;;2.58;1.63;;;20.60;99.90;;;;;;7391057;19;20593;-78
2023/10/01 10:31:29;;;;;;;2.78;1.63;;;20.70;99.90;;;;;;7393368;19;20130;-77
2023/10/01 10:34:25;;;;;;;2.50;1.83;;;20.80;99.90;;;;;;7389306;19;20141;-78
2023/10/01 10:36:54;;;;;;;2.30;1.80;;;20.90;99.90;;;;;;7394041;19;20130;-77
2023/10/01 10:39:47;;;;;;;2.28;1.73;;;20.90;99.90;;;;;;7392018;19;20154;-76
2023/10/01 10:42:28;;;;;;;3.05;2.20;;;20.90;99.90;;;;;;7392094;19;20879;-77
2023/10/01 10:45:20;;;;;;;3.90;2.20;;;20.90;99.90;;;;;;7393661;19;20209;-78
2023/10/01 10:48:02;;;;;;;2.88;1.60;;;20.90;99.90;;;;;;7393037;19;20138;-77
2023/10/01 10:50:48;;;;;;;3.55;1.60;;;21.00;99.90;;;;;;7388680;19;20616;-75
2023/10/01 10:53:19;;;;;;;3.00;1.85;;;21.10;99.90;;;;;;7391265;19;20131;-85
2023/10/01 10:55:55;;;;;;;5.50;1.73;;;21.10;99.90;;;;;;7398812;19;20138;-85
2023/10/01 10:58:25;;;;;;;5.22;2.72;;;21.10;99.90;;;;;;7404706;19;20138;-84
2023/10/01 11:00:52;;;;;;;3.83;1.77;;;21.20;99.90;;;;;;7400227;19;20143;-85
2023/10/01 11:03:42;;;;;;;2.53;1.67;;;21.20;99.90;;;;;;7396611;19;20945;-87
2023/10/01 11:06:23;;;;;;;3.17;1.85;;;21.20;99.90;;;;;;7395529;19;20189;-87
2023/10/01 11:08:51;;;;;;;2.63;1.40;;;21.30;99.90;;;;;;7394655;19;20138;-87
2023/10/01 11:11:39;;;;;;;3.70;2.10;;;21.30;99.90;;;;;;7396922;19;20139;-86
2023/10/01 11:14:11;;;;;;;4.25;1.80;;;21.50;99.90;;;;;;7393733;19;20142;-87
2023/10/01 11:16:44;;;;;;;3.80;1.50;;;21.50;99.90;;;;;;7395367;19;20158;-86
2023/10/01 11:19:15;;;;;;;3.05;1.73;;;21.60;99.90;;;;;;7394269;19;20131;-86
2023/10/01 11:21:59;;;;;;;2.50;1.50;;;21.60;99.90;;;;;;7395679;19;20210;-85
2023/10/01 11:24:31;;;;;;;2.88;1.60;;;21.80;99.90;;;;;;7394347;19;20146;-86
2023/10/01 11:27:14;;;;;;;3.75;1.75;;;21.80;99.90;;;;;;7395804;19;20584;-86
2023/10/01 11:29:59;;;;;;;4.40;1.73;;;21.90;99.90;;;;;;7393908;19;20150;-87
2023/10/01 11:35:37;;;;;;;2.92;2.03;;;22.00;99.90;;;;;;7394574;19;20153;-86
2023/10/01 11:38:10;;;;;;;3.22;1.55;;;22.00;99.90;;;;;;7398246;19;20142;-88
2023/10/01 11:43:27;;;;;;;4.85;2.05;;;22.00;99.90;;;;;;7396676;19;20141;-87
2023/10/01 11:49:02;;;;;;;2.95;1.73;;;22.10;99.90;;;;;;7395507;19;20139;-86
2023/10/01 11:51:50;;;;;;;2.90;1.63;;;22.20;99.90;;;;;;7395849;19;20146;-85
2023/10/01 11:54:18;;;;;;;6.18;1.88;;;22.40;99.90;;;;;;7397609;19;20146;-87
2023/10/01 11:57:08;;;;;;;4.55;1.73;;;22.60;99.90;;;;;;7398315;19;20138;-85
2023/10/01 11:59:42;;;;;;;4.18;1.90;;;22.50;99.90;;;;;;7394791;19;20422;-86
2023/10/01 12:02:20;;;;;;;4.82;1.90;;;22.40;99.90;;;;;;7397020;19;20136;-86
2023/10/01 12:04:57;;;;;;;2.35;1.67;;;22.50;99.90;;;;;;7394403;19;20246;-86
2023/10/01 12:07:32;;;;;;;3.55;1.88;;;22.50;99.90;;;;;;7393442;19;20146;-86
2023/10/01 12:09:59;;;;;;;3.00;1.58;;;22.60;99.90;;;;;;7394284;19;20190;-85
2023/10/01 12:12:31;;;;;;;3.33;1.52;;;22.50;99.90;;;;;;7393704;19;20135;-87
2023/10/01 12:17:51;;;;;;;5.40;2.30;;;22.90;99.90;;;;;;7395289;19;20158;-87
2023/10/01 12:20:28;;;;;;;2.60;1.80;;;23.00;99.90;;;;;;7393275;19;20172;-85
2023/10/01 12:23:10;;;;;;;4.57;1.80;;;22.90;99.90;;;;;;7393756;19;20157;-86
2023/10/01 12:26:32;;;;;;;4.72;1.92;;;22.90;99.90;;;;;;7392491;19;20247;-86
2023/10/01 12:29:11;;;;;;;2.80;1.52;;;23.00;99.90;;;;;;7393458;19;20155;-86
2023/10/01 12:31:39;;;;;;;5.25;2.20;;;23.00;99.90;;;;;;7393374;19;20154;-87
2023/10/01 12:34:05;;;;;;;3.60;1.98;;;23.10;99.90;;;;;;7389945;19;20163;-87
2023/10/01 12:36:47;;;;;;;3.22;1.70;;;23.20;99.90;;;;;;7393471;19;20158;-87
2023/10/01 12:44:31;;;;;;;4.55;1.92;;;23.20;99.90;;;;;;7395653;19;20137;-85
2023/10/01 12:47:02;;;;;;;4.40;1.73;;;23.20;99.90;;;;;;7393874;19;20818;-87
2023/10/01 12:49:31;;;;;;;3.38;1.73;;;23.10;99.90;;;;;;7391200;19;20170;-86
2023/10/01 12:51:57;;;;;;;4.70;1.88;;;23.20;99.90;;;;;;7392557;19;20154;-87
2023/10/01 12:54:27;;;;;;;3.58;1.80;;;23.30;99.90;;;;;;7391332;19;20126;-85
2023/10/01 12:57:05;;;;;;;2.55;1.60;;;23.40;99.90;;;;;;7392801;19;20179;-84
2023/10/01 12:59:39;;;;;;;4.45;1.92;;;23.50;99.90;;;;;;7394587;19;20138;-86
2023/10/01 13:02:21;;;;;;;3.50;1.52;;;23.60;99.90;;;;;;7392392;19;20583;-86
2023/10/01 13:07:46;;;;;;;4.10;1.90;;;23.50;99.90;;;;;;7391567;19;20469;-88
2023/10/01 13:10:13;;;;;;;5.32;2.33;;;23.40;99.90;;;;;;7391459;19;20146;-85
2023/10/01 13:12:49;;;;;;;3.88;1.85;;;23.50;99.90;;;;;;7392796;19;20154;-86
2023/10/01 13:15:15;;;;;;;5.75;2.63;;;23.60;99.90;;;;;;7393263;19;20134;-87
2023/10/01 13:17:44;;;;;;;4.65;2.83;;;23.70;99.90;;;;;;7391199;19;20161;-85
2023/10/01 13:20:25;;;;;;;4.35;2.80;;;23.80;99.90;;;;;;7389820;19;20469;-85
2023/10/01 13:22:52;;;;;;;3.50;2.00;;;23.80;99.90;;;;;;7390201;19;20139;-86
2023/10/01 13:25:20;;;;;;;4.00;2.00;;;23.90;99.90;;;;;;7390122;19;20158;-86
2023/10/01 13:27:46;;;;;;;3.08;1.88;;;23.90;99.90;;;;;;7389884;19;20138;-85
2023/10/01 13:30:22;;;;;;;4.50;2.53;;;23.80;99.90;;;;;;7390894;19;20157;-85
2023/10/01 13:33:10;;;;;;;3.55;1.63;;;23.80;99.90;;;;;;7390088;19;20157;-85
2023/10/01 13:35:36;;;;;;;3.47;1.83;;;23.70;99.90;;;;;;7389422;19;20161;-85
2023/10/01 14:11:08;;;;;;;5.68;1.88;;;23.60;99.90;;;;;;7396580;19;20482;-89
2023/10/01 14:13:35;;;;;;;3.47;1.80;;;23.50;99.90;;;;;;7395275;19;20167;-86
2023/10/01 14:16:22;;;;;;;4.43;1.98;;;23.60;99.90;;;;;;7396357;19;20138;-80
2023/10/01 14:21:35;;;;;;;3.63;1.60;;;23.60;99.90;;;;;;7389642;19;20495;-81
2023/10/01 14:26:50;;;;;;;5.38;1.98;;;23.50;99.90;;;;;;7391843;19;20879;-81
2023/10/01 14:29:22;;;;;;;4.18;2.03;;;23.50;99.90;;;;;;7391874;19;20150;-81
2023/10/01 14:31:52;;;;;;;4.18;2.30;;;23.60;99.90;;;;;;7391059;19;20225;-83
2023/10/01 14:34:21;;;;;;;4.32;2.08;;;23.60;99.90;;;;;;7387116;19;20420;-81
2023/10/01 14:36:51;;;;;;;4.18;1.95;;;23.50;99.90;;;;;;7391853;19;20135;-85
2023/10/01 14:39:18;;;;;;;4.78;2.10;;;23.60;99.90;;;;;;7393226;19;20131;-84
2023/10/01 14:41:50;;;;;;;6.00;2.67;;;23.60;99.90;;;;;;7394063;19;20611;-83
2023/10/01 14:44:24;;;;;;;5.00;2.42;;;23.50;99.90;;;;;;7394044;19;20150;-86
2023/10/01 14:46:52;;;;;;;3.92;1.63;;;23.50;99.90;;;;;;7394508;19;20610;-83
2023/10/01 14:49:19;;;;;;;3.10;1.75;;;23.50;99.90;;;;;;7389294;19;20161;-83
2023/10/01 14:51:48;;;;;;;5.70;2.08;;;23.50;99.90;;;;;;7393220;19;20146;-82
2023/10/01 14:54:18;;;;;;;3.00;1.65;;;23.60;99.90;;;;;;7392835;19;20146;-83
2023/10/01 14:56:54;;;;;;;4.32;2.25;;;23.60;99.90;;;;;;7394803;19;20214;-82
2023/10/01 14:59:20;;;;;;;3.03;1.45;;;23.50;99.90;;;;;;7392709;19;20448;-83
2023/10/01 15:01:46;;;;;;;3.97;1.98;;;23.50;99.90;;;;;;7394148;19;20464;-82
2023/10/01 15:04:20;;;;;;;3.78;2.05;;;23.30;99.90;;;;;;7388408;19;20137;-85
2023/10/01 15:07:05;;;;;;;4.05;2.10;;;23.20;99.90;;;;;;7391461;19;20146;-85